Time;durP1;ratioP1;P1;durP2;ratioP2;P2;SDS_P1;SDS_P2;PMS_P1;PMS_P2;Temp;Humidity;BMP_temperature;BMP_pressure;BME280_temperature;BME280_humidity;BME280_pressure;Samples;Min_cycle;Max_cycle;Signal;HPM_P1;HPM_P2
2021/08/19 00:00:31;;;;;;;;;;;24.50;61.80;;;;;;4991722;28;19929;-60
2021/08/19 00:02:58;;;;;;;;;;;24.50;61.80;;;;;;4990465;28;20012;-60
2021/08/19 00:05:26;;;;;;;;;;;24.50;61.60;;;;;;4991335;28;19930;-60
2021/08/19 00:07:53;;;;;;;;;;;24.50;61.60;;;;;;4991274;28;19999;-60
2021/08/19 00:10:21;;;;;;;;;;;24.50;62.50;;;;;;4991272;28;19958;-61
2021/08/19 00:12:49;;;;;;;;;;;24.50;61.70;;;;;;4991118;28;19932;-60
2021/08/19 00:15:16;;;;;;;;;;;24.50;61.90;;;;;;4991080;28;19941;-60
2021/08/19 00:17:43;;;;;;;;;;;24.50;61.80;;;;;;4991243;28;20435;-60
2021/08/19 00:20:11;;;;;;;;;;;24.50;61.90;;;;;;4991253;28;20468;-60
2021/08/19 00:22:38;;;;;;;;;;;24.50;61.70;;;;;;4990306;28;19995;-60
2021/08/19 00:25:06;;;;;;;;;;;24.50;61.70;;;;;;4991402;28;20327;-60
2021/08/19 00:27:33;;;;;;;;;;;24.50;61.80;;;;;;4990008;28;19925;-60
2021/08/19 00:30:00;;;;;;;;;;;24.50;61.70;;;;;;4989840;28;19926;-60
2021/08/19 00:32:27;;;;;;;;;;;24.50;61.80;;;;;;4990443;28;19933;-60
2021/08/19 00:34:55;;;;;;;;;;;24.50;61.80;;;;;;4990960;28;19932;-61
2021/08/19 00:37:22;;;;;;;;;;;24.50;62.50;;;;;;4989803;28;19965;-60
2021/08/19 00:39:49;;;;;;;;;;;24.50;61.60;;;;;;4989897;28;19945;-60
2021/08/19 00:42:16;;;;;;;;;;;24.50;61.60;;;;;;4990905;28;19955;-60
2021/08/19 00:44:47;;;;;;;;;;;24.50;61.50;;;;;;4990740;28;19930;-61
2021/08/19 00:47:14;;;;;;;;;;;24.50;61.60;;;;;;4990156;28;20450;-60
2021/08/19 00:49:42;;;;;;;;;;;24.50;61.70;;;;;;4989770;28;19933;-60
2021/08/19 00:52:10;;;;;;;;;;;24.50;61.80;;;;;;4990642;28;19933;-59
2021/08/19 00:54:38;;;;;;;;;;;24.50;61.70;;;;;;4989218;28;19933;-60
2021/08/19 00:57:06;;;;;;;;;;;24.50;61.80;;;;;;4973350;28;19926;-60
2021/08/19 00:59:34;;;;;;;;;;;24.50;61.70;;;;;;4990616;28;19925;-59
2021/08/19 01:02:04;;;;;;;;;;;24.50;61.70;;;;;;4989612;28;20013;-60
2021/08/19 01:04:32;;;;;;;;;;;24.50;61.60;;;;;;4990705;28;19925;-61
2021/08/19 01:07:00;;;;;;;;;;;24.50;61.60;;;;;;4990505;28;19962;-60
2021/08/19 01:09:27;;;;;;;;;;;24.50;61.50;;;;;;4994837;28;19932;-59
2021/08/19 01:11:54;;;;;;;;;;;24.50;61.60;;;;;;4996886;28;20002;-59
2021/08/19 01:14:21;;;;;;;;;;;24.50;61.60;;;;;;4990515;28;19971;-60
2021/08/19 01:16:49;;;;;;;;;;;24.50;61.50;;;;;;4990349;28;19926;-60
2021/08/19 01:19:20;;;;;;;;;;;24.50;61.50;;;;;;4990324;28;19926;-60
2021/08/19 01:21:48;;;;;;;;;;;24.50;61.50;;;;;;4989200;28;19976;-59
2021/08/19 01:24:15;;;;;;;;;;;24.50;61.60;;;;;;4990699;28;20012;-61
2021/08/19 01:26:42;;;;;;;;;;;24.50;61.50;;;;;;4990248;28;19975;-60
2021/08/19 01:29:10;;;;;;;;;;;24.50;62.20;;;;;;4990445;28;20029;-59
2021/08/19 01:31:37;;;;;;;;;;;24.50;61.60;;;;;;4989075;28;20374;-60
2021/08/19 01:34:04;;;;;;;;;;;24.50;61.50;;;;;;4989135;28;20017;-60
2021/08/19 01:36:31;;;;;;;;;;;24.50;61.50;;;;;;4989570;28;19927;-60
2021/08/19 01:38:58;;;;;;;;;;;24.50;61.60;;;;;;4989359;28;19933;-60
2021/08/19 01:41:25;;;;;;;;;;;24.50;61.60;;;;;;4989255;28;19953;-61
2021/08/19 01:43:53;;;;;;;;;;;24.50;61.60;;;;;;4990979;28;20025;-60
2021/08/19 01:46:20;;;;;;;;;;;24.50;61.40;;;;;;4993471;28;19975;-60
2021/08/19 01:48:49;;;;;;;;;;;24.50;62.20;;;;;;4992396;28;20001;-61
2021/08/19 01:51:20;;;;;;;;;;;24.50;61.50;;;;;;4992827;28;19933;-61
2021/08/19 01:53:50;;;;;;;;;;;24.50;61.50;;;;;;4991142;28;20464;-60
2021/08/19 01:56:21;;;;;;;;;;;24.50;61.50;;;;;;4993565;28;19926;-60
2021/08/19 01:58:49;;;;;;;;;;;24.50;61.50;;;;;;4992624;28;20262;-60
2021/08/19 02:01:19;;;;;;;;;;;24.50;61.50;;;;;;4993585;28;20012;-60
2021/08/19 02:03:47;;;;;;;;;;;24.50;61.60;;;;;;4993506;28;19926;-60
2021/08/19 02:06:14;;;;;;;;;;;24.50;61.60;;;;;;4993605;28;19926;-60
2021/08/19 02:08:41;;;;;;;;;;;24.50;61.50;;;;;;4992011;28;19930;-60
2021/08/19 02:11:08;;;;;;;;;;;24.50;61.60;;;;;;4993368;28;19969;-60
2021/08/19 02:13:36;;;;;;;;;;;24.50;61.70;;;;;;4993048;28;19933;-60
2021/08/19 02:16:03;;;;;;;;;;;24.50;61.70;;;;;;4975733;28;20052;-60
2021/08/19 02:18:30;;;;;;;;;;;24.50;61.60;;;;;;4993044;28;19948;-60
2021/08/19 02:20:57;;;;;;;;;;;24.50;61.60;;;;;;4993051;28;19960;-60
2021/08/19 02:23:24;;;;;;;;;;;24.50;62.20;;;;;;4974642;28;19973;-60
2021/08/19 02:25:51;;;;;;;;;;;24.50;61.60;;;;;;4993290;28;19926;-60
2021/08/19 02:28:18;;;;;;;;;;;24.50;61.60;;;;;;4992903;28;19956;-60
2021/08/19 02:30:46;;;;;;;;;;;24.50;61.60;;;;;;4991883;28;19926;-60
2021/08/19 02:33:13;;;;;;;;;;;24.50;61.60;;;;;;4991705;28;19926;-60
2021/08/19 02:35:40;;;;;;;;;;;24.50;61.40;;;;;;4991634;28;20381;-60
2021/08/19 02:38:07;;;;;;;;;;;24.50;61.50;;;;;;4991917;28;19930;-60
2021/08/19 02:40:36;;;;;;;;;;;24.50;61.60;;;;;;4975645;28;20311;-61
2021/08/19 02:43:03;;;;;;;;;;;24.50;61.40;;;;;;4992664;28;19975;-60
2021/08/19 02:45:31;;;;;;;;;;;24.50;61.50;;;;;;4991843;28;19933;-60
2021/08/19 02:47:58;;;;;;;;;;;24.50;61.50;;;;;;4992920;28;20340;-60
2021/08/19 02:50:25;;;;;;;;;;;24.50;61.30;;;;;;4992927;28;19926;-60
2021/08/19 02:52:52;;;;;;;;;;;24.50;61.40;;;;;;4992699;28;19926;-60
2021/08/19 02:55:19;;;;;;;;;;;24.50;61.40;;;;;;4990198;28;19926;-59
2021/08/19 02:57:47;;;;;;;;;;;24.50;61.40;;;;;;4992495;28;20012;-60
2021/08/19 03:00:14;;;;;;;;;;;24.50;61.30;;;;;;4992537;28;20410;-59
2021/08/19 03:02:41;;;;;;;;;;;24.50;62.10;;;;;;4992476;28;19933;-60
2021/08/19 03:05:09;;;;;;;;;;;24.50;61.30;;;;;;4992403;28;19932;-60
2021/08/19 03:07:36;;;;;;;;;;;24.50;61.40;;;;;;4992586;28;19925;-60
2021/08/19 03:10:04;;;;;;;;;;;24.50;61.30;;;;;;4992030;28;19969;-59
2021/08/19 03:12:31;;;;;;;;;;;24.50;61.30;;;;;;4992283;28;19960;-60
2021/08/19 03:14:58;;;;;;;;;;;24.50;61.30;;;;;;4992053;28;19961;-60
2021/08/19 03:17:27;;;;;;;;;;;24.50;61.20;;;;;;4992395;28;20258;-60
2021/08/19 03:19:54;;;;;;;;;;;24.50;61.40;;;;;;4992028;28;19926;-61
2021/08/19 03:22:21;;;;;;;;;;;24.50;61.30;;;;;;4973885;28;19933;-60
2021/08/19 03:24:49;;;;;;;;;;;24.50;61.40;;;;;;4991875;28;20016;-60
2021/08/19 03:27:16;;;;;;;;;;;24.50;61.10;;;;;;4991829;28;19933;-60
2021/08/19 03:29:43;;;;;;;;;;;24.50;61.20;;;;;;4991856;28;19934;-60
2021/08/19 03:32:10;;;;;;;;;;;24.50;61.30;;;;;;4991961;28;19926;-60
2021/08/19 03:34:38;;;;;;;;;;;24.50;61.30;;;;;;4992147;28;19926;-60
2021/08/19 03:37:07;;;;;;;;;;;24.50;61.30;;;;;;4991048;28;20620;-59
2021/08/19 03:39:35;;;;;;;;;;;24.50;61.20;;;;;;4990994;28;19988;-60
2021/08/19 03:42:03;;;;;;;;;;;24.50;61.20;;;;;;4975043;28;19933;-61
2021/08/19 03:44:30;;;;;;;;;;;24.50;61.40;;;;;;4991516;28;20004;-60
2021/08/19 03:46:58;;;;;;;;;;;24.50;61.20;;;;;;4991761;28;19995;-60
2021/08/19 03:49:26;;;;;;;;;;;24.50;61.30;;;;;;4991538;28;19926;-60
2021/08/19 03:51:55;;;;;;;;;;;24.40;61.20;;;;;;4991767;28;19926;-60
2021/08/19 03:54:27;;;;;;;;;;;24.50;61.20;;;;;;4991409;28;19933;-60
2021/08/19 03:56:54;;;;;;;;;;;24.50;61.90;;;;;;4990310;28;20001;-59
2021/08/19 03:59:22;;;;;;;;;;;24.50;61.20;;;;;;4991353;28;20016;-59
2021/08/19 04:01:49;;;;;;;;;;;24.50;61.20;;;;;;4991471;28;20013;-60
2021/08/19 04:04:17;;;;;;;;;;;24.50;61.20;;;;;;4991482;28;19956;-59
2021/08/19 04:06:44;;;;;;;;;;;24.50;61.20;;;;;;4990079;28;19975;-59
2021/08/19 04:09:11;;;;;;;;;;;24.50;61.20;;;;;;4991556;28;19929;-60
2021/08/19 04:11:38;;;;;;;;;;;24.50;61.10;;;;;;4990475;28;19948;-60
2021/08/19 04:14:05;;;;;;;;;;;24.50;61.10;;;;;;4990007;28;19959;-60
2021/08/19 04:16:32;;;;;;;;;;;24.50;61.10;;;;;;4990191;28;19925;-60
2021/08/19 04:19:00;;;;;;;;;;;24.50;61.00;;;;;;4990121;28;19926;-60
2021/08/19 04:21:27;;;;;;;;;;;24.50;61.20;;;;;;4991106;28;19961;-59
2021/08/19 04:23:54;;;;;;;;;;;24.50;61.80;;;;;;4991379;28;20008;-60
2021/08/19 04:26:21;;;;;;;;;;;24.50;61.20;;;;;;4990336;28;19930;-61
2021/08/19 04:28:49;;;;;;;;;;;24.50;61.10;;;;;;4990781;28;19956;-59
2021/08/19 04:31:16;;;;;;;;;;;24.50;61.10;;;;;;4989944;28;20352;-59
2021/08/19 04:33:43;;;;;;;;;;;24.50;61.00;;;;;;4990155;28;19953;-60
2021/08/19 04:36:10;;;;;;;;;;;24.50;61.10;;;;;;4990058;28;19965;-60
2021/08/19 04:38:37;;;;;;;;;;;24.50;61.10;;;;;;4990178;28;19930;-60
2021/08/19 04:41:04;;;;;;;;;;;24.50;61.10;;;;;;4990987;28;19968;-60
2021/08/19 04:43:31;;;;;;;;;;;24.50;61.30;;;;;;4990793;28;19936;-60
2021/08/19 04:45:59;;;;;;;;;;;24.50;61.30;;;;;;4990833;28;19925;-60
2021/08/19 04:48:26;;;;;;;;;;;24.50;61.10;;;;;;4991266;28;20298;-59
2021/08/19 04:50:53;;;;;;;;;;;24.50;61.00;;;;;;4988791;28;20013;-60
2021/08/19 04:53:20;;;;;;;;;;;24.50;61.10;;;;;;4989632;28;19932;-60
2021/08/19 04:55:48;;;;;;;;;;;24.50;61.10;;;;;;4990235;28;19967;-60
2021/08/19 04:58:15;;;;;;;;;;;24.50;61.00;;;;;;4990419;28;20012;-60
2021/08/19 05:00:42;;;;;;;;;;;24.50;61.20;;;;;;4990662;28;19926;-60
2021/08/19 05:03:09;;;;;;;;;;;24.60;61.20;;;;;;4990694;28;19973;-60
2021/08/19 05:05:37;;;;;;;;;;;24.60;61.10;;;;;;4990504;28;19926;-60
2021/08/19 05:08:04;;;;;;;;;;;24.60;61.10;;;;;;4989444;28;20294;-59
2021/08/19 05:10:31;;;;;;;;;;;24.60;61.10;;;;;;4990427;28;20013;-60
2021/08/19 05:12:58;;;;;;;;;;;24.50;60.90;;;;;;4989338;28;19980;-59
2021/08/19 05:15:26;;;;;;;;;;;24.60;61.20;;;;;;4989184;28;19926;-60
2021/08/19 05:17:53;;;;;;;;;;;24.60;61.10;;;;;;4990497;28;19925;-60
2021/08/19 05:20:20;;;;;;;;;;;24.60;60.80;;;;;;4988751;28;20412;-60
2021/08/19 05:22:47;;;;;;;;;;;24.60;60.90;;;;;;4990590;28;19949;-61
2021/08/19 05:25:15;;;;;;;;;;;24.60;60.80;;;;;;4990400;28;19932;-60
2021/08/19 05:27:42;;;;;;;;;;;24.60;60.80;;;;;;4990257;28;19972;-60
2021/08/19 05:30:10;;;;;;;;;;;24.60;60.70;;;;;;4972279;28;20020;-61
2021/08/19 05:32:37;;;;;;;;;;;24.60;60.80;;;;;;4972893;28;19977;-60
2021/08/19 05:35:04;;;;;;;;;;;24.60;60.60;;;;;;4989381;28;19983;-60
2021/08/19 05:37:31;;;;;;;;;;;24.60;60.70;;;;;;4972349;28;19973;-60
2021/08/19 05:39:58;;;;;;;;;;;24.60;60.50;;;;;;4990565;28;20340;-60
2021/08/19 05:42:26;;;;;;;;;;;24.70;60.60;;;;;;4990309;28;19990;-60
2021/08/19 05:44:53;;;;;;;;;;;24.70;60.50;;;;;;4990573;28;19938;-59
2021/08/19 05:47:20;;;;;;;;;;;24.80;60.50;;;;;;4988955;28;19926;-60
2021/08/19 05:49:47;;;;;;;;;;;24.80;60.40;;;;;;4989062;28;19926;-61
2021/08/19 05:52:15;;;;;;;;;;;24.80;60.30;;;;;;4990379;28;20289;-60
2021/08/19 05:54:43;;;;;;;;;;;24.80;60.20;;;;;;4988634;28;19929;-60
2021/08/19 05:57:12;;;;;;;;;;;24.80;60.30;;;;;;4989671;28;19969;-60
2021/08/19 05:59:39;;;;;;;;;;;24.80;60.30;;;;;;4988751;28;19926;-60
2021/08/19 06:02:07;;;;;;;;;;;24.80;60.20;;;;;;4989801;28;19926;-60
2021/08/19 06:04:36;;;;;;;;;;;24.90;60.30;;;;;;4989731;28;19925;-60
2021/08/19 06:07:05;;;;;;;;;;;24.80;60.20;;;;;;4989806;28;19926;-60
2021/08/19 06:09:32;;;;;;;;;;;24.90;60.30;;;;;;4988760;28;19969;-61
2021/08/19 06:11:59;;;;;;;;;;;24.90;60.20;;;;;;4989645;28;19926;-59
2021/08/19 06:14:26;;;;;;;;;;;24.90;60.10;;;;;;4989579;28;19975;-61
2021/08/19 06:16:53;;;;;;;;;;;24.90;59.90;;;;;;4988785;28;19925;-59
2021/08/19 06:19:21;;;;;;;;;;;24.90;60.00;;;;;;4989704;28;19971;-60
2021/08/19 06:21:48;;;;;;;;;;;25.00;60.10;;;;;;4988562;28;20025;-59
2021/08/19 06:24:15;;;;;;;;;;;25.00;60.00;;;;;;4972388;28;19926;-59
2021/08/19 06:26:42;;;;;;;;;;;25.00;60.00;;;;;;4989241;28;19952;-60
2021/08/19 06:29:09;;;;;;;;;;;25.00;59.80;;;;;;4989424;28;19961;-60
2021/08/19 06:31:36;;;;;;;;;;;25.00;59.90;;;;;;4991076;28;19940;-60
2021/08/19 06:34:04;;;;;;;;;;;25.10;59.80;;;;;;4992718;28;19933;-60
2021/08/19 06:36:31;;;;;;;;;;;25.00;59.80;;;;;;4992640;28;20389;-59
2021/08/19 06:38:58;;;;;;;;;;;25.10;59.70;;;;;;4991904;28;19926;-60
2021/08/19 06:41:27;;;;;;;;;;;25.10;59.50;;;;;;4974851;28;20274;-60
2021/08/19 06:43:54;;;;;;;;;;;25.10;59.60;;;;;;4991683;28;19968;-59
2021/08/19 06:46:21;;;;;;;;;;;25.20;59.50;;;;;;4992803;28;19930;-60
2021/08/19 06:48:49;;;;;;;;;;;25.20;59.50;;;;;;4991351;28;19934;-60
2021/08/19 06:51:16;;;;;;;;;;;25.20;59.70;;;;;;4992377;28;20349;-60
2021/08/19 06:53:55;;;;;;;;;;;25.20;59.40;;;;;;4992093;28;19929;-60
2021/08/19 06:56:25;;;;;;;;;;;25.20;59.50;;;;;;4992368;28;20020;-60
2021/08/19 06:58:52;;;;;;;;;;;25.30;59.40;;;;;;4992251;28;19926;-60
2021/08/19 07:01:19;;;;;;;;;;;25.30;59.30;;;;;;4992698;28;19961;-59
2021/08/19 07:03:47;;;;;;;;;;;25.30;59.40;;;;;;4992836;28;20396;-60
2021/08/19 07:06:15;;;;;;;;;;;25.30;59.30;;;;;;4991185;28;19933;-60
2021/08/19 07:08:43;;;;;;;;;;;25.30;59.20;;;;;;4992234;28;19926;-60
2021/08/19 07:11:11;;;;;;;;;;;25.40;59.20;;;;;;4992510;28;19975;-60
2021/08/19 07:13:38;;;;;;;;;;;25.40;59.10;;;;;;4992166;28;19965;-60
2021/08/19 07:16:05;;;;;;;;;;;25.40;58.90;;;;;;4992122;28;19932;-61
2021/08/19 07:18:33;;;;;;;;;;;25.50;58.90;;;;;;4992361;28;20377;-61
2021/08/19 07:21:00;;;;;;;;;;;25.50;58.90;;;;;;4992276;28;19925;-58
2021/08/19 07:23:28;;;;;;;;;;;25.50;58.80;;;;;;4992184;28;19926;-59
2021/08/19 07:25:55;;;;;;;;;;;25.60;58.50;;;;;;4991834;28;19949;-59
2021/08/19 07:28:23;;;;;;;;;;;25.60;58.50;;;;;;4992099;28;19926;-58
2021/08/19 07:30:50;;;;;;;;;;;25.60;58.40;;;;;;4991866;28;19932;-59
2021/08/19 07:33:18;;;;;;;;;;;25.70;58.50;;;;;;4992152;28;19929;-59
2021/08/19 07:35:49;;;;;;;;;;;25.70;58.40;;;;;;4992101;28;19977;-59
2021/08/19 07:38:18;;;;;;;;;;;25.70;58.40;;;;;;4991043;28;20297;-58
2021/08/19 07:40:46;;;;;;;;;;;25.70;58.40;;;;;;4974036;28;19933;-59
2021/08/19 07:43:13;;;;;;;;;;;25.70;58.10;;;;;;4991345;28;19930;-58
2021/08/19 07:45:40;;;;;;;;;;;25.80;58.20;;;;;;4991670;28;20013;-59
2021/08/19 07:48:08;;;;;;;;;;;25.80;58.10;;;;;;4991675;28;19926;-59
2021/08/19 07:50:36;;;;;;;;;;;25.90;58.10;;;;;;4990695;28;19926;-58
2021/08/19 07:53:04;;;;;;;;;;;25.90;58.00;;;;;;4991388;28;20009;-58
2021/08/19 07:55:31;;;;;;;;;;;25.90;57.90;;;;;;4991232;28;20380;-58
2021/08/19 07:57:59;;;;;;;;;;;25.90;57.80;;;;;;4990452;28;20343;-59
2021/08/19 08:00:27;;;;;;;;;;;25.90;57.80;;;;;;4991745;28;20355;-59
2021/08/19 08:02:54;;;;;;;;;;;26.00;57.90;;;;;;4990358;28;19926;-58
2021/08/19 08:05:23;;;;;;;;;;;26.00;57.80;;;;;;4991582;28;19929;-60
2021/08/19 08:07:51;;;;;;;;;;;26.00;57.80;;;;;;4991555;28;19926;-58
2021/08/19 08:10:19;;;;;;;;;;;26.00;57.70;;;;;;4991274;28;19948;-58
2021/08/19 08:12:46;;;;;;;;;;;26.10;57.60;;;;;;4973315;28;19925;-59
2021/08/19 08:15:14;;;;;;;;;;;26.10;57.60;;;;;;4991036;28;20408;-58
2021/08/19 08:17:42;;;;;;;;;;;26.10;57.60;;;;;;4991512;28;19934;-58
2021/08/19 08:20:10;;;;;;;;;;;26.20;57.70;;;;;;4989943;28;19930;-59
2021/08/19 08:22:40;;;;;;;;;;;26.20;57.70;;;;;;4991003;28;19930;-59
2021/08/19 08:25:11;;;;;;;;;;;26.20;57.70;;;;;;4990067;28;19932;-58
2021/08/19 08:28:03;;;;;;;;;;;26.20;57.60;;;;;;4989719;28;19930;-59
2021/08/19 08:30:32;;;;;;;;;;;26.20;57.60;;;;;;4990961;28;20004;-59
2021/08/19 08:32:59;;;;;;;;;;;26.20;57.60;;;;;;4990151;28;20005;-59
2021/08/19 08:35:27;;;;;;;;;;;26.30;57.60;;;;;;4990242;28;19926;-59
2021/08/19 08:37:54;;;;;;;;;;;26.30;57.40;;;;;;4990153;28;20327;-59
2021/08/19 08:40:22;;;;;;;;;;;26.30;57.30;;;;;;4990737;28;20021;-59
2021/08/19 08:42:50;;;;;;;;;;;26.30;57.30;;;;;;4989712;28;19969;-59
2021/08/19 08:45:18;;;;;;;;;;;26.30;57.30;;;;;;4989620;28;19926;-59
2021/08/19 08:47:45;;;;;;;;;;;26.40;57.30;;;;;;4990808;28;19937;-59
2021/08/19 08:50:13;;;;;;;;;;;26.40;57.40;;;;;;4990039;28;19955;-60
2021/08/19 08:52:41;;;;;;;;;;;26.40;57.10;;;;;;4990783;28;19926;-59
2021/08/19 08:55:08;;;;;;;;;;;26.40;56.90;;;;;;4988794;28;20497;-58
2021/08/19 08:57:36;;;;;;;;;;;26.40;57.00;;;;;;4989952;28;19979;-58
2021/08/19 09:00:07;;;;;;;;;;;26.40;56.90;;;;;;4990575;28;19932;-59
2021/08/19 09:02:35;;;;;;;;;;;26.40;57.10;;;;;;4989443;28;19965;-59
2021/08/19 09:05:13;;;;;;;;;;;26.40;57.00;;;;;;4989562;28;19930;-60
2021/08/19 09:07:40;;;;;;;;;;;26.40;57.00;;;;;;4989260;28;19925;-58
2021/08/19 09:10:07;;;;;;;;;;;26.40;56.90;;;;;;4989880;28;19925;-57
2021/08/19 09:12:39;;;;;;;;;;;26.50;56.90;;;;;;4989390;28;20377;-58
2021/08/19 09:15:12;;;;;;;;;;;26.50;56.90;;;;;;4990661;28;19926;-58
2021/08/19 09:17:44;;;;;;;;;;;26.50;56.80;;;;;;4989113;28;19926;-58
2021/08/19 09:20:12;;;;;;;;;;;26.60;56.80;;;;;;4990138;28;20008;-59
2021/08/19 09:22:52;;;;;;;;;;;26.60;56.70;;;;;;4990363;28;19995;-59
2021/08/19 09:25:31;;;;;;;;;;;26.60;56.50;;;;;;4990250;28;19948;-61
2021/08/19 09:28:16;;;;;;;;;;;26.60;56.50;;;;;;4988958;28;19965;-59
2021/08/19 09:30:48;;;;;;;;;;;26.60;56.60;;;;;;4988533;28;19937;-59
2021/08/19 09:33:17;;;;;;;;;;;26.60;56.50;;;;;;4989850;28;19965;-58
2021/08/19 09:35:45;;;;;;;;;;;26.60;56.50;;;;;;4989395;28;19926;-59
2021/08/19 09:38:14;;;;;;;;;;;26.70;56.50;;;;;;4990391;28;20285;-59
2021/08/19 09:40:42;;;;;;;;;;;26.70;56.50;;;;;;4989183;28;19932;-58
2021/08/19 09:43:10;;;;;;;;;;;26.70;56.40;;;;;;4989050;28;19925;-59
2021/08/19 09:45:45;;;;;;;;;;;26.70;56.40;;;;;;4989160;28;20259;-58
2021/08/19 09:48:13;;;;;;;;;;;26.70;56.40;;;;;;4989190;28;19926;-59
2021/08/19 09:50:40;;;;;;;;;;;26.70;56.40;;;;;;4988828;28;20002;-58
2021/08/19 09:53:15;;;;;;;;;;;26.70;56.50;;;;;;4989940;28;20416;-59
2021/08/19 09:55:43;;;;;;;;;;;26.70;56.40;;;;;;4989632;28;20021;-59
2021/08/19 09:58:10;;;;;;;;;;;26.70;56.40;;;;;;4988745;28;19925;-59
2021/08/19 10:00:40;;;;;;;;;;;26.70;56.50;;;;;;4972042;28;19969;-59
2021/08/19 10:03:14;;;;;;;;;;;26.70;56.50;;;;;;4989824;28;19991;-59
2021/08/19 10:05:42;;;;;;;;;;;26.70;56.40;;;;;;4990643;28;19925;-59
2021/08/19 10:08:10;;;;;;;;;;;26.70;56.50;;;;;;4993506;28;19933;-60
2021/08/19 10:10:38;;;;;;;;;;;26.70;56.50;;;;;;4991955;28;19949;-59
2021/08/19 10:13:06;;;;;;;;;;;26.70;56.40;;;;;;4992957;28;19925;-60
2021/08/19 10:15:36;;;;;;;;;;;26.70;56.40;;;;;;4992681;28;20389;-59
2021/08/19 10:18:05;;;;;;;;;;;26.70;56.50;;;;;;4993224;28;19930;-59
2021/08/19 10:20:36;;;;;;;;;;;26.70;56.40;;;;;;4992274;28;19991;-58
2021/08/19 10:23:03;;;;;;;;;;;26.70;56.60;;;;;;4992981;28;19965;-58
2021/08/19 10:25:31;;;;;;;;;;;26.70;56.40;;;;;;4991829;28;19971;-59
2021/08/19 10:28:16;;;;;;;;;;;26.70;56.60;;;;;;4991793;28;20382;-59
2021/08/19 10:30:48;;;;;;;;;;;26.70;56.50;;;;;;4991684;28;19961;-58
2021/08/19 10:33:34;;;;;;;;;;;26.60;56.50;;;;;;4991622;28;19926;-59
2021/08/19 10:36:21;;;;;;;;;;;26.60;56.70;;;;;;4992843;28;19930;-58
2021/08/19 10:38:48;;;;;;;;;;;26.60;56.70;;;;;;4981756;28;19926;-59
2021/08/19 10:41:30;;;;;;;;;;;26.60;56.60;;;;;;4992927;28;20280;-59
2021/08/19 10:44:07;;;;;;;;;;;26.70;56.80;;;;;;4992502;28;19930;-59
2021/08/19 10:46:41;;;;;;;;;;;26.60;56.70;;;;;;4991473;28;19973;-58
2021/08/19 10:49:28;;;;;;;;;;;26.60;56.70;;;;;;4991833;28;20328;-60
2021/08/19 10:51:56;;;;;;;;;;;26.60;56.60;;;;;;4991423;28;19926;-59
2021/08/19 10:54:42;;;;;;;;;;;26.70;56.60;;;;;;4991416;28;20371;-59
2021/08/19 10:57:24;;;;;;;;;;;26.70;56.70;;;;;;4992690;28;20013;-58
2021/08/19 10:59:58;;;;;;;;;;;26.70;56.50;;;;;;4992512;28;19933;-58
2021/08/19 11:02:42;;;;;;;;;;;26.80;56.50;;;;;;4992836;28;20497;-60
2021/08/19 11:05:14;;;;;;;;;;;26.80;56.30;;;;;;4992532;28;19925;-59
2021/08/19 11:07:46;;;;;;;;;;;26.80;56.50;;;;;;4992295;28;19926;-59
2021/08/19 11:10:20;;;;;;;;;;;26.80;56.40;;;;;;4991190;28;19937;-59
2021/08/19 11:12:48;;;;;;;;;;;26.80;56.40;;;;;;4991965;28;19926;-58
2021/08/19 11:15:16;;;;;;;;;;;26.80;56.30;;;;;;4992360;28;19933;-58
2021/08/19 11:17:50;;;;;;;;;;;26.80;56.40;;;;;;4974231;28;19973;-59
2021/08/19 11:20:22;;;;;;;;;;;26.80;56.40;;;;;;4992291;28;20017;-59
2021/08/19 11:23:18;;;;;;;;;;;26.80;56.20;;;;;;4992012;28;20378;-59
2021/08/19 11:25:46;;;;;;;;;;;26.80;56.30;;;;;;5051107;28;19970;-59
2021/08/19 11:28:14;;;;;;;;;;;26.80;56.50;;;;;;5052133;28;20023;-60
2021/08/19 11:30:46;;;;;;;;;;;26.70;56.70;;;;;;5051005;28;20011;-59
2021/08/19 11:33:18;;;;;;;;;;;26.70;56.70;;;;;;5052198;28;20059;-59
2021/08/19 11:35:47;;;;;;;;;;;26.70;56.70;;;;;;5052005;28;20009;-58
2021/08/19 11:38:16;;;;;;;;;;;26.70;56.80;;;;;;5050995;28;19925;-58
2021/08/19 11:40:44;;;;;;;;;;;26.70;56.60;;;;;;5050901;28;20007;-58
2021/08/19 11:43:18;;;;;;;;;;;26.70;56.60;;;;;;5050701;28;19925;-59
2021/08/19 11:45:46;;;;;;;;;;;26.70;56.60;;;;;;5050735;28;20420;-59
2021/08/19 11:48:16;;;;;;;;;;;26.70;56.70;;;;;;5051856;28;19959;-59
2021/08/19 11:50:44;;;;;;;;;;;26.70;56.60;;;;;;5051826;28;19924;-59
2021/08/19 11:53:13;;;;;;;;;;;26.70;56.70;;;;;;5050818;28;19925;-58
2021/08/19 11:55:41;;;;;;;;;;;26.80;56.80;;;;;;5051282;28;19975;-59
2021/08/19 11:58:14;;;;;;;;;;;26.80;56.80;;;;;;5049053;28;20100;-60
2021/08/19 12:01:02;;;;;;;;;;;26.80;56.60;;;;;;5050460;28;19925;-59
2021/08/19 12:03:29;;;;;;;;;;;26.80;56.60;;;;;;4991492;28;19926;-59
2021/08/19 12:05:57;;;;;;;;;;;26.80;57.10;;;;;;4990257;28;20435;-59
2021/08/19 12:08:25;;;;;;;;;;;26.90;56.30;;;;;;4991366;28;19926;-59
2021/08/19 12:10:56;;;;;;;;;;;26.90;56.20;;;;;;4990698;28;20321;-58
2021/08/19 12:13:24;;;;;;;;;;;26.90;56.40;;;;;;4991154;28;20400;-59
2021/08/19 12:15:51;;;;;;;;;;;26.90;56.40;;;;;;4991402;28;20013;-59
2021/08/19 12:18:19;;;;;;;;;;;26.90;56.40;;;;;;4991431;28;19932;-59
2021/08/19 12:20:47;;;;;;;;;;;26.90;56.30;;;;;;4991189;28;19932;-59
2021/08/19 12:23:21;;;;;;;;;;;26.90;56.20;;;;;;4990359;28;19975;-59
2021/08/19 12:25:48;;;;;;;;;;;26.80;56.40;;;;;;4991136;28;20443;-59
2021/08/19 12:28:16;;;;;;;;;;;26.90;56.70;;;;;;4991182;28;19926;-59
2021/08/19 12:30:54;;;;;;;;;;;26.80;56.70;;;;;;4990553;28;19933;-59
2021/08/19 12:33:29;;;;;;;;;;;26.80;56.80;;;;;;4956390;28;19937;-58
2021/08/19 12:36:08;;;;;;;;;;;26.80;56.70;;;;;;4974047;28;19930;-59
2021/08/19 12:38:35;;;;;;;;;;;26.80;56.80;;;;;;4974392;28;19932;-59
2021/08/19 12:41:12;;;;;;;;;;;26.80;56.80;;;;;;4990328;28;20352;-59
2021/08/19 12:43:40;;;;;;;;;;;26.80;56.70;;;;;;4974787;28;19933;-59
2021/08/19 12:46:07;;;;;;;;;;;26.80;56.80;;;;;;4990200;28;19960;-59
2021/08/19 12:48:35;;;;;;;;;;;26.80;56.80;;;;;;4990355;28;19926;-59
2021/08/19 12:51:19;;;;;;;;;;;26.80;56.70;;;;;;4990152;28;19925;-59
2021/08/19 12:54:05;;;;;;;;;;;26.70;56.60;;;;;;4990091;28;19995;-59
2021/08/19 12:56:34;;;;;;;;;;;26.70;56.80;;;;;;4973771;28;19955;-59
2021/08/19 12:59:04;;;;;;;;;;;26.80;56.40;;;;;;4989796;28;20556;-60
2021/08/19 13:01:31;;;;;;;;;;;26.70;56.70;;;;;;4990827;28;20377;-59
2021/08/19 13:03:59;;;;;;;;;;;26.80;56.80;;;;;;4989694;28;19926;-59
2021/08/19 13:06:27;;;;;;;;;;;26.80;56.60;;;;;;4990037;28;20013;-59
2021/08/19 13:08:54;;;;;;;;;;;26.80;56.80;;;;;;4990004;28;20329;-59
2021/08/19 13:11:21;;;;;;;;;;;26.80;56.50;;;;;;4990745;28;20285;-59
2021/08/19 13:13:49;;;;;;;;;;;26.80;56.50;;;;;;4990551;28;20005;-59
2021/08/19 13:16:16;;;;;;;;;;;26.80;56.50;;;;;;4990820;28;19925;-60
2021/08/19 13:18:44;;;;;;;;;;;26.80;56.40;;;;;;4990416;28;19930;-58
2021/08/19 13:21:11;;;;;;;;;;;26.80;56.30;;;;;;4990525;28;19937;-59
2021/08/19 13:23:38;;;;;;;;;;;26.80;56.30;;;;;;4989274;28;19933;-59
2021/08/19 13:26:06;;;;;;;;;;;26.80;55.90;;;;;;4989245;28;19926;-59
2021/08/19 13:28:33;;;;;;;;;;;26.80;56.20;;;;;;4990417;28;19934;-59
2021/08/19 13:31:00;;;;;;;;;;;26.80;56.20;;;;;;4989327;28;20407;-59
2021/08/19 13:33:28;;;;;;;;;;;26.80;56.20;;;;;;4990257;28;19925;-59
2021/08/19 13:35:55;;;;;;;;;;;26.80;56.00;;;;;;4990183;28;19971;-59
2021/08/19 13:38:22;;;;;;;;;;;26.80;56.10;;;;;;4989427;28;19925;-59
2021/08/19 13:40:49;;;;;;;;;;;26.70;56.00;;;;;;4992190;28;19926;-59
2021/08/19 13:43:17;;;;;;;;;;;26.70;56.30;;;;;;4993600;28;19926;-59
2021/08/19 13:45:44;;;;;;;;;;;26.70;56.30;;;;;;4975270;28;20005;-59
2021/08/19 13:48:11;;;;;;;;;;;26.70;56.10;;;;;;4976621;28;19926;-60
2021/08/19 13:50:38;;;;;;;;;;;26.70;56.20;;;;;;4993722;28;19957;-59
2021/08/19 13:53:05;;;;;;;;;;;26.70;56.40;;;;;;4992631;28;19976;-59
2021/08/19 13:55:32;;;;;;;;;;;26.70;57.00;;;;;;4992229;28;19932;-59
2021/08/19 13:58:00;;;;;;;;;;;26.70;56.30;;;;;;4992341;28;19926;-60
2021/08/19 14:00:27;;;;;;;;;;;26.70;56.50;;;;;;4992855;28;19980;-59
2021/08/19 14:02:54;;;;;;;;;;;26.70;56.40;;;;;;4992646;28;19926;-60
2021/08/19 14:05:22;;;;;;;;;;;26.70;56.20;;;;;;4993393;28;19972;-59
2021/08/19 14:07:50;;;;;;;;;;;26.70;56.20;;;;;;4993219;28;19925;-60
2021/08/19 14:10:17;;;;;;;;;;;26.70;55.60;;;;;;4993470;28;19992;-59
2021/08/19 14:12:44;;;;;;;;;;;26.70;55.90;;;;;;4974773;28;19957;-59
2021/08/19 14:15:11;;;;;;;;;;;26.70;56.10;;;;;;4993280;28;19926;-59
2021/08/19 14:17:38;;;;;;;;;;;26.70;56.20;;;;;;5002911;28;19976;-59
2021/08/19 14:20:06;;;;;;;;;;;26.70;56.00;;;;;;4980635;28;19935;-59
2021/08/19 14:22:35;;;;;;;;;;;26.70;55.70;;;;;;4992357;28;20356;-59
2021/08/19 14:25:09;;;;;;;;;;;26.60;55.90;;;;;;4993009;28;20377;-59